createdAt,value
2017-10-25T00:00:00.728Z,12.40
2017-10-25T00:00:04.975Z,12.65
2017-10-25T00:00:09.978Z,12.87
2017-10-25T00:00:15.037Z,13.50
2017-10-25T00:00:19.291Z,13.83
2017-10-25T00:00:23.526Z,13.70
2017-10-25T00:00:29.557Z,13.75
2017-10-25T00:00:33.816Z,13.80
2017-10-25T00:00:38.083Z,13.40
2017-10-25T00:00:42.349Z,13.30
2017-10-25T00:00:47.384Z,13.30
2017-10-25T00:00:51.629Z,13.30
2017-10-25T00:00:55.899Z,13.83
2017-10-25T00:01:00.156Z,14.30
2017-10-25T00:01:05.184Z,14.00
2017-10-25T00:01:10.194Z,14.03
2017-10-25T00:01:15.215Z,14.43
2017-10-25T00:01:20.230Z,14.20
2017-10-25T00:01:25.269Z,14.03
2017-10-25T00:01:29.522Z,14.10
2017-10-25T00:01:33.766Z,13.73
2017-10-25T00:01:38.784Z,13.80
2017-10-25T00:01:43.807Z,13.97
2017-10-25T00:01:48.080Z,14.00
2017-10-25T00:01:52.331Z,14.15
2017-10-25T00:01:56.597Z,13.80
2017-10-25T00:02:00.895Z,13.90
2017-10-25T00:02:05.918Z,13.80
2017-10-25T00:02:10.934Z,13.57
2017-10-25T00:02:15.940Z,13.30
2017-10-25T00:02:20.956Z,13.13
2017-10-25T00:02:25.226Z,13.20
2017-10-25T00:02:29.473Z,13.35
2017-10-25T00:02:34.476Z,13.33
2017-10-25T00:02:39.517Z,13.17
2017-10-25T00:02:44.536Z,13.23
2017-10-25T00:02:48.777Z,13.30
2017-10-25T00:02:53.060Z,13.35
2017-10-25T00:02:57.343Z,13.40
2017-10-25T00:03:01.725Z,13.30
2017-10-25T00:03:05.976Z,13.40
2017-10-25T00:03:10.203Z,13.35
2017-10-25T00:03:14.473Z,13.23
2017-10-25T00:03:19.488Z,13.90
2017-10-25T00:03:23.774Z,13.50
2017-10-25T00:03:28.047Z,13.35
2017-10-25T00:03:32.301Z,13.20
2017-10-25T00:03:36.549Z,13.55
2017-10-25T00:03:41.581Z,14.00
2017-10-25T00:03:45.826Z,13.90
2017-10-25T00:03:50.064Z,13.90
2017-10-25T00:03:55.160Z,12.90
2017-10-25T00:03:59.419Z,12.80
2017-10-25T00:04:03.657Z,12.75
2017-10-25T00:04:08.704Z,12.95
2017-10-25T00:04:13.708Z,13.00
2017-10-25T00:04:18.757Z,12.73
2017-10-25T00:04:23.786Z,12.83
2017-10-25T00:04:28.075Z,13.00
2017-10-25T00:04:33.070Z,13.10
2017-10-25T00:04:38.093Z,12.87
2017-10-25T00:04:43.111Z,12.80
2017-10-25T00:04:48.134Z,12.73
2017-10-25T00:04:52.396Z,12.70
2017-10-25T00:04:56.643Z,12.60
2017-10-25T00:05:00.912Z,12.75
2017-10-25T00:05:05.149Z,12.97
2017-10-25T00:05:09.401Z,13.10
2017-10-25T00:05:13.638Z,13.00
2017-10-25T00:05:17.931Z,12.80
2017-10-25T00:05:22.181Z,12.90
2017-10-25T00:05:26.443Z,12.80
2017-10-25T00:05:30.700Z,13.05
2017-10-25T00:05:34.967Z,13.43
2017-10-25T00:05:39.204Z,13.75
2017-10-25T00:05:43.451Z,13.50
2017-10-25T00:05:47.699Z,13.50
2017-10-25T00:05:51.964Z,13.43
2017-10-25T00:05:56.211Z,13.50
2017-10-25T00:06:00.450Z,13.45
2017-10-25T00:06:04.698Z,13.60
2017-10-25T00:06:08.952Z,13.87
2017-10-25T00:06:13.235Z,14.20
2017-10-25T00:06:17.486Z,14.50
2017-10-25T00:06:21.778Z,14.37
2017-10-25T00:06:26.033Z,14.20
2017-10-25T00:06:30.292Z,13.95
2017-10-25T00:06:34.544Z,14.05
2017-10-25T00:06:39.553Z,13.93
2017-10-25T00:06:43.835Z,13.80
2017-10-25T00:06:48.102Z,14.00
2017-10-25T00:06:52.345Z,14.15
2017-10-25T00:06:56.670Z,14.37
2017-10-25T00:07:01.797Z,14.50
2017-10-25T00:07:06.075Z,14.30
2017-10-25T00:07:11.115Z,14.30
2017-10-25T00:07:15.373Z,14.10
2017-10-25T00:07:19.625Z,13.93
2017-10-25T00:07:23.927Z,14.20
2017-10-25T00:07:28.198Z,14.40
2017-10-25T00:07:33.230Z,14.30
2017-10-25T00:07:37.493Z,14.03
2017-10-25T00:07:41.799Z,14.30
2017-10-25T00:07:46.029Z,15.30
2017-10-25T00:07:50.286Z,15.05
2017-10-25T00:07:54.531Z,14.90
2017-10-25T00:07:58.818Z,15.10
2017-10-25T00:08:03.830Z,15.05
2017-10-25T00:08:08.846Z,14.97
2017-10-25T00:08:13.933Z,14.77
2017-10-25T00:08:18.169Z,14.63
2017-10-25T00:08:22.486Z,14.07
2017-10-25T00:08:27.503Z,13.95
2017-10-25T00:08:32.517Z,14.17
2017-10-25T00:08:37.536Z,14.50
2017-10-25T00:08:42.559Z,14.20
2017-10-25T00:08:47.571Z,14.07
2017-10-25T00:08:51.816Z,14.20
2017-10-25T00:08:56.099Z,14.30
2017-10-25T00:09:00.366Z,14.30
2017-10-25T00:09:04.640Z,14.20
2017-10-25T00:09:08.888Z,13.85
2017-10-25T00:09:13.153Z,13.70
2017-10-25T00:09:17.393Z,13.85
2017-10-25T00:09:21.638Z,14.10
2017-10-25T00:09:25.908Z,13.90
2017-10-25T00:09:30.163Z,13.83
2017-10-25T00:09:34.386Z,13.95
2017-10-25T00:09:38.628Z,13.90
2017-10-25T00:09:43.783Z,14.00
2017-10-25T00:09:48.038Z,14.20
2017-10-25T00:09:52.268Z,14.10
2017-10-25T00:09:56.525Z,14.20
2017-10-25T00:10:00.766Z,14.30
2017-10-25T00:10:05.014Z,14.40
2017-10-25T00:10:09.246Z,14.50
2017-10-25T00:10:13.512Z,14.60
2017-10-25T00:10:18.512Z,14.50
2017-10-25T00:10:23.515Z,14.57
2017-10-25T00:10:27.756Z,14.80
2017-10-25T00:10:32.057Z,14.80
2017-10-25T00:10:36.308Z,14.90
2017-10-25T00:10:40.569Z,15.15
2017-10-25T00:10:44.828Z,15.07
2017-10-25T00:10:49.843Z,14.90
2017-10-25T00:10:54.133Z,14.77
2017-10-25T00:10:58.459Z,14.60
2017-10-25T00:11:03.502Z,14.63
2017-10-25T00:11:07.789Z,14.70
2017-10-25T00:11:12.818Z,14.95
2017-10-25T00:11:17.050Z,15.00
2017-10-25T00:11:21.310Z,14.80
2017-10-25T00:11:25.563Z,14.60
2017-10-25T00:11:29.819Z,14.45
2017-10-25T00:11:34.069Z,14.40
2017-10-25T00:11:38.306Z,14.15
2017-10-25T00:11:42.545Z,13.77
2017-10-25T00:11:46.807Z,13.70
2017-10-25T00:11:51.382Z,13.85
2017-10-25T00:11:56.482Z,14.10
2017-10-25T00:12:01.551Z,14.20
2017-10-25T00:12:05.804Z,14.37
2017-10-25T00:12:10.070Z,14.20
2017-10-25T00:12:14.348Z,14.05
2017-10-25T00:12:19.385Z,14.00
2017-10-25T00:12:23.656Z,13.93
2017-10-25T00:12:28.694Z,14.05
2017-10-25T00:12:32.939Z,14.23
2017-10-25T00:12:37.182Z,14.20
2017-10-25T00:12:41.440Z,14.30
2017-10-25T00:12:45.681Z,14.40
2017-10-25T00:12:49.961Z,14.35
2017-10-25T00:12:55.013Z,14.17
2017-10-25T00:13:00.048Z,14.07
2017-10-25T00:13:04.328Z,13.87
2017-10-25T00:13:08.576Z,13.90
2017-10-25T00:13:13.674Z,14.15
2017-10-25T00:13:17.968Z,14.33
2017-10-25T00:13:22.221Z,14.33
2017-10-25T00:13:27.492Z,14.75
2017-10-25T00:13:31.872Z,14.70
2017-10-25T00:13:36.190Z,14.73
2017-10-25T00:13:40.504Z,15.05
2017-10-25T00:13:44.784Z,14.70
2017-10-25T00:13:49.065Z,14.80
2017-10-25T00:13:54.085Z,14.80
2017-10-25T00:13:59.178Z,14.87
2017-10-25T00:14:03.432Z,14.85
2017-10-25T00:14:07.699Z,15.15
2017-10-25T00:14:12.702Z,15.20
2017-10-25T00:14:16.963Z,15.33
2017-10-25T00:14:21.986Z,15.65
2017-10-25T00:14:26.236Z,15.33
2017-10-25T00:14:31.267Z,15.15
2017-10-25T00:14:36.245Z,15.00
2017-10-25T00:14:40.497Z,15.10
2017-10-25T00:14:44.744Z,15.10
2017-10-25T00:14:49.003Z,14.97
2017-10-25T00:14:53.235Z,15.00
2017-10-25T00:14:57.477Z,14.75
2017-10-25T00:15:01.795Z,14.50
2017-10-25T00:15:06.053Z,14.60
2017-10-25T00:15:10.322Z,14.75
2017-10-25T00:15:14.557Z,14.90
2017-10-25T00:15:18.812Z,14.87
2017-10-25T00:15:23.061Z,14.70
2017-10-25T00:15:27.324Z,14.90
2017-10-25T00:15:31.564Z,15.05
2017-10-25T00:15:35.820Z,15.23
2017-10-25T00:15:40.076Z,15.50
2017-10-25T00:15:45.097Z,15.60
2017-10-25T00:15:49.336Z,15.80
2017-10-25T00:15:53.592Z,15.87
2017-10-25T00:15:58.024Z,16.45
2017-10-25T00:16:03.249Z,16.80
2017-10-25T00:16:07.495Z,16.65
2017-10-25T00:16:11.763Z,16.35
2017-10-25T00:16:16.132Z,16.05
2017-10-25T00:16:20.416Z,16.20
2017-10-25T00:16:24.674Z,16.43
2017-10-25T00:16:28.932Z,16.60
2017-10-25T00:16:33.203Z,16.60
2017-10-25T00:16:37.456Z,16.53
2017-10-25T00:16:41.726Z,16.50
2017-10-25T00:16:46.733Z,16.60
2017-10-25T00:16:51.737Z,16.50
2017-10-25T00:16:55.997Z,16.33
2017-10-25T00:17:00.254Z,16.05
2017-10-25T00:17:04.518Z,15.93
2017-10-25T00:17:08.817Z,16.30
2017-10-25T00:17:13.077Z,16.50
2017-10-25T00:17:17.349Z,16.47
2017-10-25T00:17:21.588Z,16.55
2017-10-25T00:17:25.822Z,16.40
2017-10-25T00:17:30.081Z,16.60
2017-10-25T00:17:34.350Z,16.70
2017-10-25T00:17:38.582Z,16.70
2017-10-25T00:17:42.834Z,16.60
2017-10-25T00:17:47.078Z,16.25
2017-10-25T00:17:51.335Z,16.20
2017-10-25T00:17:55.611Z,16.30
2017-10-25T00:17:59.874Z,16.30
2017-10-25T00:18:04.869Z,16.60
2017-10-25T00:18:09.877Z,16.63
2017-10-25T00:18:14.136Z,16.60
2017-10-25T00:18:18.449Z,16.45
2017-10-25T00:18:22.711Z,16.30
2017-10-25T00:18:27.739Z,16.30
2017-10-25T00:18:32.007Z,15.90
2017-10-25T00:18:37.082Z,16.00
2017-10-25T00:18:41.352Z,16.30
2017-10-25T00:18:45.589Z,16.80
2017-10-25T00:18:49.856Z,17.20
2017-10-25T00:18:54.861Z,17.10
2017-10-25T00:18:59.910Z,16.97
2017-10-25T00:19:04.125Z,16.60
2017-10-25T00:19:08.384Z,16.40
2017-10-25T00:19:13.397Z,16.65
2017-10-25T00:19:18.389Z,16.80
2017-10-25T00:19:22.700Z,16.87
2017-10-25T00:19:26.930Z,16.93
2017-10-25T00:19:31.186Z,16.90
2017-10-25T00:19:35.455Z,16.95
2017-10-25T00:19:39.713Z,16.70
2017-10-25T00:19:44.773Z,16.55
2017-10-25T00:19:49.031Z,16.43
2017-10-25T00:19:54.039Z,16.60
2017-10-25T00:19:59.066Z,16.90
2017-10-25T00:20:03.301Z,17.07
2017-10-25T00:20:07.565Z,17.00
2017-10-25T00:20:12.581Z,17.00
2017-10-25T00:20:17.635Z,16.90
2017-10-25T00:20:21.892Z,16.83
2017-10-25T00:20:26.137Z,16.70
2017-10-25T00:20:30.411Z,16.80
2017-10-25T00:20:34.647Z,16.73
2017-10-25T00:20:38.911Z,16.70
2017-10-25T00:20:43.935Z,16.70
2017-10-25T00:20:48.171Z,16.80
2017-10-25T00:20:52.408Z,16.80
2017-10-25T00:20:56.673Z,16.65
2017-10-25T00:21:00.910Z,16.40
2017-10-25T00:21:05.190Z,16.30
2017-10-25T00:21:09.424Z,16.23
2017-10-25T00:21:14.481Z,16.00
2017-10-25T00:21:18.748Z,16.00
2017-10-25T00:21:23.773Z,16.10
2017-10-25T00:21:50.442Z,16.04
2017-10-25T00:21:57.245Z,16.45
2017-10-25T00:22:02.440Z,16.45
2017-10-25T00:22:06.692Z,16.60
2017-10-25T00:22:10.948Z,16.65
2017-10-25T00:22:15.223Z,16.80
2017-10-25T00:22:19.487Z,17.00
2017-10-25T00:22:23.766Z,16.95
2017-10-25T00:22:28.847Z,16.80
2017-10-25T00:22:33.112Z,16.80
2017-10-25T00:22:38.147Z,17.00
2017-10-25T00:22:42.395Z,16.90
2017-10-25T00:22:47.410Z,16.45
2017-10-25T00:22:51.665Z,16.60
2017-10-25T00:22:55.952Z,16.75
2017-10-25T00:23:00.228Z,17.13
2017-10-25T00:23:05.274Z,17.15
2017-10-25T00:23:09.522Z,17.20
2017-10-25T00:23:13.772Z,17.20
2017-10-25T00:23:18.033Z,17.20
2017-10-25T00:23:22.351Z,17.40
2017-10-25T00:23:27.369Z,17.60
2017-10-25T00:23:32.377Z,17.57
2017-10-25T00:23:37.410Z,17.60
2017-10-25T00:23:42.422Z,17.57
2017-10-25T00:23:47.502Z,17.70
2017-10-25T00:23:52.548Z,17.60
2017-10-25T00:23:56.797Z,17.37
2017-10-25T00:24:01.059Z,17.10
2017-10-25T00:24:06.076Z,17.10
2017-10-25T00:24:10.307Z,17.20
2017-10-25T00:24:14.541Z,17.20
2017-10-25T00:24:18.796Z,16.97
2017-10-25T00:24:23.816Z,16.70
2017-10-25T00:24:28.068Z,16.83
2017-10-25T00:24:32.334Z,17.10
2017-10-25T00:24:36.588Z,17.20
2017-10-25T00:24:40.843Z,17.15
2017-10-25T00:24:45.062Z,17.30
2017-10-25T00:24:50.831Z,17.50
2017-10-25T00:24:55.880Z,17.65
2017-10-25T00:25:00.117Z,17.97
2017-10-25T00:25:04.352Z,18.20
2017-10-25T00:25:09.390Z,18.40
2017-10-25T00:25:13.647Z,18.53
2017-10-25T00:25:17.882Z,18.70
2017-10-25T00:25:22.184Z,18.90
2017-10-25T00:25:27.183Z,18.90
2017-10-25T00:25:32.205Z,18.50
2017-10-25T00:25:37.224Z,18.50
2017-10-25T00:25:42.283Z,18.60
2017-10-25T00:25:46.543Z,18.57
2017-10-25T00:25:51.558Z,18.30
2017-10-25T00:25:56.583Z,18.23
2017-10-25T00:26:01.591Z,18.20
2017-10-25T00:26:06.642Z,18.20
2017-10-25T00:26:10.898Z,18.30
2017-10-25T00:26:15.210Z,18.45
2017-10-25T00:26:19.462Z,18.43
2017-10-25T00:26:23.703Z,18.45
2017-10-25T00:26:27.970Z,18.45
2017-10-25T00:26:32.189Z,18.60
2017-10-25T00:26:36.483Z,18.40
2017-10-25T00:26:40.751Z,18.60
2017-10-25T00:26:45.007Z,18.75
2017-10-25T00:26:49.265Z,18.73
2017-10-25T00:26:53.582Z,18.60
2017-10-25T00:26:57.829Z,18.55
2017-10-25T00:27:02.837Z,18.27
2017-10-25T00:27:07.845Z,17.87
2017-10-25T00:27:12.857Z,17.73
2017-10-25T00:27:17.887Z,17.83
2017-10-25T00:27:22.133Z,17.80
2017-10-25T00:27:26.369Z,17.80
2017-10-25T00:27:30.632Z,18.00
2017-10-25T00:27:34.947Z,18.20
2017-10-25T00:27:40.029Z,17.93
2017-10-25T00:27:44.264Z,17.20
2017-10-25T00:27:48.533Z,17.35
2017-10-25T00:27:52.784Z,17.70
2017-10-25T00:27:57.027Z,17.87
2017-10-25T00:28:01.294Z,17.95
2017-10-25T00:28:05.579Z,18.30
2017-10-25T00:28:09.832Z,18.50
2017-10-25T00:28:14.084Z,18.05
2017-10-25T00:28:18.336Z,17.80
2017-10-25T00:28:22.600Z,17.90
2017-10-25T00:28:26.846Z,17.93
2017-10-25T00:28:31.131Z,18.10
2017-10-25T00:28:35.416Z,17.85
2017-10-25T00:28:40.423Z,18.23
2017-10-25T00:28:44.674Z,19.07
2017-10-25T00:28:48.969Z,18.95
2017-10-25T00:28:53.199Z,18.80
2017-10-25T00:28:57.441Z,18.85
2017-10-25T00:29:02.519Z,18.73
2017-10-25T00:29:06.773Z,19.20
2017-10-25T00:29:11.018Z,19.10
2017-10-25T00:29:15.274Z,19.10
2017-10-25T00:29:19.530Z,19.20
2017-10-25T00:29:23.787Z,19.70
2017-10-25T00:29:28.054Z,20.20
2017-10-25T00:29:32.267Z,19.60
2017-10-25T00:29:36.535Z,19.57
2017-10-25T00:29:40.789Z,19.10
2017-10-25T00:29:45.043Z,18.80
2017-10-25T00:29:49.273Z,18.90
2017-10-25T00:29:53.535Z,18.77
2017-10-25T00:29:57.787Z,18.75
2017-10-25T00:30:02.732Z,19.15
2017-10-25T00:30:06.970Z,18.80
2017-10-25T00:30:11.972Z,18.80
2017-10-25T00:30:16.269Z,18.73
2017-10-25T00:30:20.527Z,18.40
2017-10-25T00:30:24.776Z,18.15
2017-10-25T00:30:29.124Z,18.10
2017-10-25T00:30:34.109Z,18.03
2017-10-25T00:30:39.123Z,17.97
2017-10-25T00:30:43.368Z,17.77
2017-10-25T00:30:47.631Z,17.45
2017-10-25T00:30:51.902Z,17.40
2017-10-25T00:30:56.147Z,17.80
2017-10-25T00:31:00.384Z,17.60
2017-10-25T00:31:04.682Z,17.50
2017-10-25T00:31:08.925Z,17.60
2017-10-25T00:31:13.173Z,17.77
2017-10-25T00:31:17.414Z,17.80
2017-10-25T00:31:21.685Z,17.90
2017-10-25T00:31:25.935Z,18.05
2017-10-25T00:31:30.961Z,18.13
2017-10-25T00:31:36.003Z,18.20
2017-10-25T00:31:40.264Z,18.20
2017-10-25T00:31:45.277Z,18.40
2017-10-25T00:31:50.293Z,18.50
2017-10-25T00:31:55.337Z,18.17
2017-10-25T00:32:00.335Z,18.07
2017-10-25T00:32:05.334Z,18.20
2017-10-25T00:32:09.599Z,18.10
2017-10-25T00:32:13.872Z,17.93
2017-10-25T00:32:18.874Z,18.05
2017-10-25T00:32:23.155Z,17.87
2017-10-25T00:32:27.440Z,18.00
2017-10-25T00:32:31.735Z,18.25
2017-10-25T00:32:36.005Z,18.73
2017-10-25T00:32:40.287Z,19.25
2017-10-25T00:32:45.317Z,19.45
2017-10-25T00:32:49.563Z,19.60
2017-10-25T00:32:53.803Z,19.43
2017-10-25T00:32:58.839Z,19.05
2017-10-25T00:33:03.091Z,19.07
2017-10-25T00:33:07.336Z,19.00
2017-10-25T00:33:11.614Z,18.85
2017-10-25T00:33:16.622Z,18.63
2017-10-25T00:33:20.878Z,18.57
2017-10-25T00:33:25.959Z,18.65
2017-10-25T00:33:30.981Z,18.43
2017-10-25T00:33:36.008Z,18.30
2017-10-25T00:33:40.268Z,17.97
2017-10-25T00:33:44.509Z,17.67
2017-10-25T00:33:48.772Z,17.35
2017-10-25T00:33:53.036Z,17.30
2017-10-25T00:33:57.294Z,17.15
2017-10-25T00:34:01.559Z,17.03
2017-10-25T00:34:05.797Z,17.05
2017-10-25T00:34:10.821Z,17.15
2017-10-25T00:34:15.881Z,17.13
2017-10-25T00:34:20.128Z,17.03
2017-10-25T00:34:24.382Z,17.00
2017-10-25T00:34:28.652Z,17.00
2017-10-25T00:34:32.901Z,17.00
2017-10-25T00:34:37.139Z,17.40
2017-10-25T00:34:42.161Z,17.73
2017-10-25T00:34:46.401Z,17.73
2017-10-25T00:34:50.662Z,17.75
2017-10-25T00:34:54.984Z,17.90
2017-10-25T00:34:59.225Z,17.90
2017-10-25T00:35:03.494Z,17.50
2017-10-25T00:35:07.733Z,17.20
2017-10-25T00:35:12.753Z,17.25
2017-10-25T00:35:17.011Z,17.63
2017-10-25T00:35:21.325Z,17.93
2017-10-25T00:35:25.560Z,17.90
2017-10-25T00:35:29.820Z,17.90
2017-10-25T00:35:34.100Z,18.00
2017-10-25T00:35:39.088Z,17.97
2017-10-25T00:35:44.130Z,18.40
2017-10-25T00:35:48.442Z,18.57
2017-10-25T00:35:52.678Z,18.95
2017-10-25T00:35:56.977Z,19.10
2017-10-25T00:36:01.241Z,19.03
2017-10-25T00:36:05.490Z,19.05
2017-10-25T00:36:09.756Z,19.20
2017-10-25T00:36:14.028Z,19.00
2017-10-25T00:36:18.261Z,18.65
2017-10-25T00:36:22.535Z,18.50
2017-10-25T00:36:26.761Z,18.45
2017-10-25T00:36:31.039Z,18.40
2017-10-25T00:36:35.310Z,18.35
2017-10-25T00:36:40.317Z,18.20
2017-10-25T00:36:44.563Z,18.20
2017-10-25T00:36:48.866Z,18.27
2017-10-25T00:36:53.103Z,17.90
2017-10-25T00:36:57.410Z,17.60
2017-10-25T00:37:01.666Z,17.80
2017-10-25T00:37:05.938Z,17.80
2017-10-25T00:37:10.962Z,17.90
2017-10-25T00:37:15.976Z,18.00
2017-10-25T00:37:20.977Z,18.13
2017-10-25T00:37:25.217Z,18.33
2017-10-25T00:37:29.537Z,18.35
2017-10-25T00:37:33.776Z,18.53
2017-10-25T00:37:38.027Z,19.00
2017-10-25T00:37:42.306Z,18.65
2017-10-25T00:37:46.570Z,18.35
2017-10-25T00:37:50.832Z,18.23
2017-10-25T00:37:55.106Z,18.50
2017-10-25T00:37:59.346Z,18.45
2017-10-25T00:38:03.635Z,18.37
2017-10-25T00:38:07.894Z,18.20
2017-10-25T00:38:12.918Z,17.85
2017-10-25T00:38:17.918Z,17.83
2017-10-25T00:38:22.935Z,17.90
2017-10-25T00:38:27.952Z,18.03
2017-10-25T00:38:32.964Z,18.00
2017-10-25T00:38:37.222Z,17.63
2017-10-25T00:38:41.456Z,17.40
2017-10-25T00:38:45.714Z,17.25
2017-10-25T00:38:49.959Z,17.30
2017-10-25T00:38:54.222Z,17.40
2017-10-25T00:38:58.468Z,17.60
2017-10-25T00:39:02.841Z,17.75
2017-10-25T00:39:07.093Z,17.90
2017-10-25T00:39:12.107Z,17.97
2017-10-25T00:39:17.126Z,17.80
2017-10-25T00:39:22.196Z,18.00
2017-10-25T00:39:26.443Z,18.07
2017-10-25T00:39:31.474Z,18.40
2017-10-25T00:39:35.751Z,18.47
2017-10-25T00:39:40.011Z,18.60
2017-10-25T00:39:44.255Z,18.57
2017-10-25T00:39:49.276Z,18.60
2017-10-25T00:39:54.293Z,18.40
2017-10-25T00:39:58.579Z,18.27
2017-10-25T00:40:02.856Z,18.30
2017-10-25T00:40:07.108Z,18.30
2017-10-25T00:40:11.363Z,18.55
2017-10-25T00:40:15.623Z,18.85
2017-10-25T00:40:19.875Z,18.90
2017-10-25T00:40:24.143Z,18.80
2017-10-25T00:40:28.388Z,19.50
2017-10-25T00:40:32.641Z,20.95
2017-10-25T00:40:36.903Z,21.20
2017-10-25T00:40:41.914Z,22.43
2017-10-25T00:40:46.942Z,22.30
2017-10-25T00:40:51.197Z,22.23
2017-10-25T00:40:55.534Z,22.15
2017-10-25T00:41:00.529Z,22.20
2017-10-25T00:41:04.784Z,22.30
2017-10-25T00:41:09.799Z,22.40
2017-10-25T00:41:14.058Z,21.87
2017-10-25T00:41:18.319Z,21.70
2017-10-25T00:41:22.655Z,21.50
2017-10-25T00:41:26.876Z,20.80
2017-10-25T00:41:31.893Z,20.30
2017-10-25T00:41:36.933Z,20.27
2017-10-25T00:41:41.187Z,20.33
2017-10-25T00:41:45.420Z,20.40
2017-10-25T00:41:49.725Z,20.30
2017-10-25T00:41:53.984Z,20.43
2017-10-25T00:41:58.240Z,20.40
2017-10-25T00:42:02.485Z,20.50
2017-10-25T00:42:06.728Z,20.40
2017-10-25T00:42:11.011Z,20.40
2017-10-25T00:42:16.019Z,20.55
2017-10-25T00:42:20.272Z,20.70
2017-10-25T00:42:24.585Z,20.70
2017-10-25T00:42:28.837Z,20.80
2017-10-25T00:42:34.056Z,20.80
2017-10-25T00:42:39.063Z,20.67
2017-10-25T00:42:43.291Z,20.60
2017-10-25T00:42:47.602Z,20.70
2017-10-25T00:42:51.859Z,20.85
2017-10-25T00:42:56.106Z,21.00
2017-10-25T00:43:00.348Z,21.30
2017-10-25T00:43:04.601Z,21.17
2017-10-25T00:43:08.943Z,21.10
2017-10-25T00:43:13.157Z,20.95
2017-10-25T00:43:17.402Z,20.80
2017-10-25T00:43:21.637Z,20.90
2017-10-25T00:43:25.895Z,20.80
2017-10-25T00:43:30.167Z,20.85
2017-10-25T00:43:34.439Z,21.10
2017-10-25T00:43:38.673Z,21.20
2017-10-25T00:43:42.943Z,21.10
2017-10-25T00:43:47.176Z,21.10
2017-10-25T00:43:51.461Z,21.50
2017-10-25T00:43:55.782Z,21.35
2017-10-25T00:44:00.803Z,21.10
2017-10-25T00:44:05.076Z,21.27
2017-10-25T00:44:09.320Z,21.57
2017-10-25T00:44:13.574Z,21.75
2017-10-25T00:44:17.825Z,21.90
2017-10-25T00:44:22.076Z,21.95
2017-10-25T00:44:26.389Z,21.70
2017-10-25T00:44:31.407Z,21.70
2017-10-25T00:44:35.698Z,22.03
2017-10-25T00:44:39.948Z,22.25
2017-10-25T00:44:44.210Z,22.50
2017-10-25T00:44:49.295Z,22.35
2017-10-25T00:44:53.563Z,22.10
2017-10-25T00:44:57.810Z,22.20
2017-10-25T00:45:02.110Z,22.30
2017-10-25T00:45:06.332Z,22.35
2017-10-25T00:45:11.340Z,22.15
2017-10-25T00:45:15.600Z,22.20
2017-10-25T00:45:19.852Z,22.40
2017-10-25T00:45:24.859Z,22.67
2017-10-25T00:45:29.137Z,22.77
2017-10-25T00:45:33.376Z,22.60
2017-10-25T00:45:38.396Z,22.75
2017-10-25T00:45:43.414Z,22.57
2017-10-25T00:45:48.438Z,22.70
2017-10-25T00:45:52.679Z,22.80
2017-10-25T00:45:56.943Z,22.80
2017-10-25T00:46:01.177Z,22.60
2017-10-25T00:46:05.431Z,22.60
2017-10-25T00:46:10.460Z,22.55
2017-10-25T00:46:15.478Z,22.65
2017-10-25T00:46:20.482Z,22.60
2017-10-25T00:46:25.486Z,22.47
2017-10-25T00:46:29.780Z,22.53
2017-10-25T00:46:34.038Z,22.80
2017-10-25T00:46:38.294Z,22.50
2017-10-25T00:46:43.321Z,22.45
2017-10-25T00:46:48.337Z,22.23
2017-10-25T00:46:52.597Z,22.05
2017-10-25T00:46:56.865Z,22.15
2017-10-25T00:47:01.096Z,22.20
2017-10-25T00:47:05.353Z,22.20
2017-10-25T00:47:09.605Z,22.10
2017-10-25T00:47:13.864Z,22.05
2017-10-25T00:47:18.096Z,21.95
2017-10-25T00:47:22.456Z,22.20
2017-10-25T00:47:27.480Z,22.10
2017-10-25T00:47:31.738Z,21.63
2017-10-25T00:47:35.993Z,21.50
2017-10-25T00:47:42.107Z,21.75
2017-10-25T00:47:47.105Z,22.04
2017-10-25T00:47:51.395Z,22.10
2017-10-25T00:47:55.686Z,22.10
2017-10-25T00:47:59.929Z,22.05
2017-10-25T00:48:04.986Z,22.25
2017-10-25T00:48:09.247Z,22.50
2017-10-25T00:48:14.241Z,22.53
2017-10-25T00:48:18.507Z,22.53
2017-10-25T00:48:22.771Z,22.25
2017-10-25T00:48:27.780Z,22.15
2017-10-25T00:48:32.783Z,22.20
2017-10-25T00:48:37.021Z,22.23
2017-10-25T00:48:41.265Z,22.07
2017-10-25T00:48:46.331Z,21.80
2017-10-25T00:48:51.333Z,21.70
2017-10-25T00:48:56.360Z,21.30
2017-10-25T00:49:01.354Z,21.40
2017-10-25T00:49:05.594Z,21.20
2017-10-25T00:49:09.836Z,20.85
2017-10-25T00:49:14.100Z,20.80
2017-10-25T00:49:18.348Z,20.80
2017-10-25T00:49:22.589Z,20.80
2017-10-25T00:49:26.843Z,20.85
2017-10-25T00:49:31.117Z,20.87
2017-10-25T00:49:35.367Z,21.00
2017-10-25T00:49:40.420Z,20.85
2017-10-25T00:49:44.645Z,20.75
2017-10-25T00:49:48.988Z,20.63
2017-10-25T00:49:54.004Z,21.00
2017-10-25T00:49:59.033Z,21.00
2017-10-25T00:50:04.054Z,21.00
2017-10-25T00:50:08.311Z,21.23
2017-10-25T00:50:12.545Z,21.20
2017-10-25T00:50:17.587Z,21.30
2017-10-25T00:50:21.903Z,21.30
2017-10-25T00:50:26.126Z,21.10
2017-10-25T00:50:30.381Z,21.10
2017-10-25T00:50:34.610Z,20.70
2017-10-25T00:50:38.887Z,20.70
2017-10-25T00:50:43.124Z,20.90
2017-10-25T00:50:47.369Z,21.15
2017-10-25T00:50:52.378Z,21.13
2017-10-25T00:50:57.398Z,21.03
2017-10-25T00:51:02.424Z,20.67
2017-10-25T00:51:07.422Z,20.43
2017-10-25T00:51:11.686Z,20.63
2017-10-25T00:51:15.933Z,20.70
2017-10-25T00:51:20.955Z,20.60
2017-10-25T00:51:25.975Z,21.03
2017-10-25T00:51:30.995Z,21.10
2017-10-25T00:51:35.252Z,21.13
2017-10-25T00:51:39.521Z,21.00
2017-10-25T00:51:43.753Z,21.00
2017-10-25T00:51:48.000Z,21.00
2017-10-25T00:51:52.996Z,21.20
2017-10-25T00:51:57.244Z,21.23
2017-10-25T00:52:01.541Z,21.27
2017-10-25T00:52:06.572Z,21.55
2017-10-25T00:52:10.819Z,21.37
2017-10-25T00:52:15.867Z,21.40
2017-10-25T00:52:20.133Z,21.40
2017-10-25T00:52:24.373Z,21.23
2017-10-25T00:52:28.703Z,21.20
2017-10-25T00:52:32.945Z,21.40
2017-10-25T00:52:37.957Z,21.30
2017-10-25T00:52:43.009Z,21.25
2017-10-25T00:52:47.261Z,21.03
2017-10-25T00:52:51.525Z,20.80
2017-10-25T00:52:55.823Z,20.95
2017-10-25T00:53:00.095Z,21.20
2017-10-25T00:53:05.154Z,20.73
2017-10-25T00:53:09.404Z,20.67
2017-10-25T00:53:14.417Z,20.50
2017-10-25T00:53:19.451Z,20.37
2017-10-25T00:53:24.481Z,20.13
2017-10-25T00:53:29.743Z,20.30
2017-10-25T00:53:34.013Z,20.17
2017-10-25T00:53:38.296Z,20.20
2017-10-25T00:53:43.309Z,20.15
2017-10-25T00:53:48.329Z,20.47
2017-10-25T00:53:53.359Z,20.50
2017-10-25T00:53:57.610Z,20.03
2017-10-25T00:54:01.911Z,20.00
2017-10-25T00:54:06.172Z,19.90
2017-10-25T00:54:10.423Z,20.05
2017-10-25T00:54:14.687Z,19.95
2017-10-25T00:54:18.962Z,19.93
2017-10-25T00:54:23.215Z,20.00
2017-10-25T00:54:27.487Z,19.70
2017-10-25T00:54:31.738Z,19.65
2017-10-25T00:54:36.777Z,19.60
2017-10-25T00:54:41.051Z,19.73
2017-10-25T00:54:45.286Z,19.60
2017-10-25T00:54:49.543Z,19.50
2017-10-25T00:54:53.803Z,19.63
2017-10-25T00:54:58.033Z,20.15
2017-10-25T00:55:02.384Z,20.40
2017-10-25T00:55:06.663Z,20.50
2017-10-25T00:55:10.935Z,20.55
2017-10-25T00:55:15.216Z,20.85
2017-10-25T00:55:19.466Z,20.90
2017-10-25T00:55:23.738Z,20.83
2017-10-25T00:55:27.995Z,20.75
2017-10-25T00:55:32.300Z,20.70
2017-10-25T00:55:36.750Z,20.80
2017-10-25T00:55:40.996Z,20.60
2017-10-25T00:55:45.242Z,20.60
2017-10-25T00:55:49.485Z,20.63
2017-10-25T00:55:53.732Z,20.65
2017-10-25T00:55:58.810Z,20.40
2017-10-25T00:56:03.077Z,20.43
2017-10-25T00:56:07.343Z,20.50
2017-10-25T00:56:11.617Z,20.43
2017-10-25T00:56:15.857Z,20.65
2017-10-25T00:56:20.115Z,20.90
2017-10-25T00:56:24.377Z,20.77
2017-10-25T00:56:28.702Z,20.85
2017-10-25T00:56:32.950Z,21.00
2017-10-25T00:56:37.194Z,21.10
2017-10-25T00:56:42.237Z,21.10
2017-10-25T00:56:46.504Z,21.07
2017-10-25T00:56:50.729Z,21.15
2017-10-25T00:56:55.020Z,21.20
2017-10-25T00:56:59.265Z,21.20
2017-10-25T00:57:03.565Z,21.25
2017-10-25T00:57:07.794Z,21.35
2017-10-25T00:57:12.051Z,21.10
2017-10-25T00:57:16.313Z,20.77
2017-10-25T00:57:21.343Z,20.85
2017-10-25T00:57:26.381Z,21.13
2017-10-25T00:57:30.617Z,21.47
2017-10-25T00:57:34.923Z,21.40
2017-10-25T00:57:39.178Z,21.17
2017-10-25T00:57:43.436Z,20.95
2017-10-25T00:57:47.690Z,21.15
2017-10-25T00:57:51.933Z,20.90
2017-10-25T00:57:56.205Z,20.70
2017-10-25T00:58:00.466Z,20.60
2017-10-25T00:58:04.775Z,20.45